Thurmont, Maryland
Current Conditions -  °F | °C
As of 2:53 PM on Friday 19 Dec 2014 (Local Time) from KRYT Reporting Station
Few Clouds Few Clouds  
Wind Chill: 30°   Ceiling: Unl
Heat Index: 36°   Visibility: 10mi
Dew Point: 21°   Wind: 7mph
Humidity: 55%   Direction: 310°NW
Pressure: 30.09"   Gusts: NA
Location:  39.62°N, 77.41°W
Report Text: KRYT 191953Z AUTO 31006KT 10SM FEW032 02/M06 A3009 RMK AO2 SLP205 T00221061 $
Loading
Personal Weather Stations






























Interactive Weather Map New forecast layout! Learn more

10-Day Weather Forecast

Advertisements
Track Severe Weather on mobile